Pagrindinis puslapis
METAR-TAF:

METAR-TAF

Oro uostai :

Juliaca, Peru

platuma: 15-29S, ilguma: 070-09W, Aukštis: 3826 m

Dabartinis oras

Ataskaita buvo paskelbta 12 valandos ir 51 minutes, ne 20:00 UTC
Vėjas 11 kt iš Rytų/Pietryčių
Temperatūra 22°C
Drėgmė 12%
Slėgis 1032 hPa
Matomumas 10 km arba daugiau
nėra debesų žemiau 1500 m ir nėra kamuolinių lietaus debesų

METAR: SPJL 242000Z 11011KT CAVOK 22/M09 Q1032 RMK PP000

Laikas: 03:51 (08:51 UTC)

Prognozė

Ataskaita buvo paskelbta 15 valandos ir 46 minutes, ne 17:05 UTC
Prognozė galioja nuo 24 metu 18 UTC su 25 metu 18 UTC
Vėjas 10 kt iš Rytų
Matomumas 10 km arba daugiau
nėra debesų žemiau 1500 m ir nėra kamuolinių lietaus debesų
Nuo 25 metu 0000 UTC
Vėjas 4 kt nuo kintamojo kryptimis
Matomumas 10 km arba daugiau
Išsisklaidę debesys ne aukštis 3000 ft
Nuo 25 metu 1300 UTC
Vėjas 6 kt iš Šiaurės Rytų
Matomumas 10 km arba daugiau
nėra debesų žemiau 1500 m ir nėra kamuolinių lietaus debesų

TAF: SPJL 241705Z 2418/2518 08010KT CAVOK TX22/2419Z TN04/2510Z FM250000 VRB04KT 9999 SCT030 FM251300 05006KT CAVOK

Orai ataskaitas ir orų prognozės (METAR, TAF).

turimą stotys yra geltonos ir raudonos taškus žemėlapyje.

Perkelti pele per norėdami pamatyti stoties vardą.

Tada spustelėkite, norėdami matyti oro stebėjimo ir prognozės.

Norėdami pakeisti žemėlapį: spustelėkite ant žalios mygtukų su juodo kryžiaus žemyn,; žalią mygtuką su brūkšneliu, jei norite nutolinti; arba žalių rodyklių gretimoms žemėlapius.


METAR-TAF: